Pagina principală
METAR-TAF:

METAR-TAF

Aeroporturi :

Sam Mbakwe Airport

Owerri, Nigeria

Latitudine: 5-25-35N, longitudine: 7-12-20E, elevație: 114 m

Observații meteo curente

Raportul a fost făcut în urmă cu 18 ore și 16 de minute, la 17:00 UTC
Vânt 8 kt de la Vest
Temperatură 30°C
Umiditate 79%
Presiune 1009 hPa
Vizibilitate de 10 km sau mai mult
Nori fragmentați la o înălțime de 1200 picior

METAR: DNIM 201700Z 27008KT 9999 BKN012 30/26 Q1009

Ora: 12:16 (11:16 UTC)


TAF: lipsă

Observații și prognoze meteo pentru peste 4.000 de aeroporturi (rapoarte METAR și TAF).

Stațiile disponibile sunt reprezentate pe hartă prin puncte galbene și roșii.

Țineți indicatorul mouse-ului pe punctul dorit pentru a vedea denumirea stației.

Apoi, faceți clic pentru a vedea observațiile și prognozele meteorologice.

Pentru a schimba harta: Pentru mărire, faceți clic pe butoanele verzi cu cruce neagră; pentru micșorare, pe butonul verde cu o liniuță; pentru hărți învecinate, pe săgețile verzi.


METAR-TAF: